sensor_id;sensor_type;location;lat;lon;timestamp;temperature;humidity
38241;DHT22;24037;49.536;8.500;2022-12-15T00:01:18;-4.30;66.20
38241;DHT22;24037;49.536;8.500;2022-12-15T00:04:03;-4.40;62.30
38241;DHT22;24037;49.536;8.500;2022-12-15T00:06:48;-4.40;61.10
38241;DHT22;24037;49.536;8.500;2022-12-15T00:09:33;-4.50;59.30
38241;DHT22;24037;49.536;8.500;2022-12-15T00:12:17;-4.50;60.10
38241;DHT22;24037;49.536;8.500;2022-12-15T00:15:03;-4.40;62.20
38241;DHT22;24037;49.536;8.500;2022-12-15T00:17:48;-4.40;63.20
38241;DHT22;24037;49.536;8.500;2022-12-15T00:20:33;-4.40;63.80
38241;DHT22;24037;49.536;8.500;2022-12-15T00:23:18;-4.40;62.40
38241;DHT22;24037;49.536;8.500;2022-12-15T00:26:03;-4.50;60.50
38241;DHT22;24037;49.536;8.500;2022-12-15T00:28:48;-4.50;60.00
38241;DHT22;24037;49.536;8.500;2022-12-15T00:31:32;-4.40;62.80
38241;DHT22;24037;49.536;8.500;2022-12-15T00:34:17;-4.40;64.50
38241;DHT22;24037;49.536;8.500;2022-12-15T00:37:02;-4.40;64.90
38241;DHT22;24037;49.536;8.500;2022-12-15T00:39:47;-4.40;65.50
38241;DHT22;24037;49.536;8.500;2022-12-15T00:42:25;-4.40;67.10
38241;DHT22;24037;49.536;8.500;2022-12-15T00:44:55;-4.40;68.30
38241;DHT22;24037;49.536;8.500;2022-12-15T00:47:21;-4.40;67.80
38241;DHT22;24037;49.536;8.500;2022-12-15T00:49:48;-4.40;66.30
38241;DHT22;24037;49.536;8.500;2022-12-15T00:52:33;-4.40;65.40
38241;DHT22;24037;49.536;8.500;2022-12-15T00:55:18;-4.40;66.10
38241;DHT22;24037;49.536;8.500;2022-12-15T00:58:04;-4.40;64.50
38241;DHT22;24037;49.536;8.500;2022-12-15T01:00:48;-4.40;62.00
38241;DHT22;24037;49.536;8.500;2022-12-15T01:03:33;-4.40;59.00
38241;DHT22;24037;49.536;8.500;2022-12-15T01:06:19;-4.50;57.30
38241;DHT22;24037;49.536;8.500;2022-12-15T01:09:06;-4.50;56.30
38241;DHT22;24037;49.536;8.500;2022-12-15T01:11:51;-4.50;56.30
38241;DHT22;24037;49.536;8.500;2022-12-15T01:14:36;-4.50;56.00
38241;DHT22;24037;49.536;8.500;2022-12-15T01:17:21;-4.50;57.40
38241;DHT22;24037;49.536;8.500;2022-12-15T01:20:06;-4.50;60.00
38241;DHT22;24037;49.536;8.500;2022-12-15T01:22:50;-4.60;61.40
38241;DHT22;24037;49.536;8.500;2022-12-15T01:25:19;-4.50;63.60
38241;DHT22;24037;49.536;8.500;2022-12-15T01:27:45;-4.50;65.50
38241;DHT22;24037;49.536;8.500;2022-12-15T01:30:14;-4.50;64.20
38241;DHT22;24037;49.536;8.500;2022-12-15T01:32:40;-4.50;62.20
38241;DHT22;24037;49.536;8.500;2022-12-15T01:35:07;-4.50;62.40
38241;DHT22;24037;49.536;8.500;2022-12-15T01:37:34;-4.50;60.90
38241;DHT22;24037;49.536;8.500;2022-12-15T01:40:00;-4.60;58.60
38241;DHT22;24037;49.536;8.500;2022-12-15T01:42:45;-4.60;56.80
38241;DHT22;24037;49.536;8.500;2022-12-15T01:48:04;-4.60;53.40
38241;DHT22;24037;49.536;8.500;2022-12-15T01:53:20;-4.60;53.40
38241;DHT22;24037;49.536;8.500;2022-12-15T01:55:47;-4.60;53.40
38241;DHT22;24037;49.536;8.500;2022-12-15T01:58:15;-4.70;53.10
38241;DHT22;24037;49.536;8.500;2022-12-15T02:00:41;-4.60;53.50
38241;DHT22;24037;49.536;8.500;2022-12-15T02:03:08;-4.70;53.90
38241;DHT22;24037;49.536;8.500;2022-12-15T02:05:36;-4.60;54.70
38241;DHT22;24037;49.536;8.500;2022-12-15T02:08:03;-4.60;55.50
38241;DHT22;24037;49.536;8.500;2022-12-15T02:10:49;-4.60;55.90
38241;DHT22;24037;49.536;8.500;2022-12-15T02:19:10;-4.50;55.40
38241;DHT22;24037;49.536;8.500;2022-12-15T02:24:47;-4.50;56.60
38241;DHT22;24037;49.536;8.500;2022-12-15T02:27:32;-4.50;56.20
38241;DHT22;24037;49.536;8.500;2022-12-15T02:30:29;-4.50;56.80
38241;DHT22;24037;49.536;8.500;2022-12-15T02:33:06;-4.40;57.90
38241;DHT22;24037;49.536;8.500;2022-12-15T02:35:39;-4.40;58.00
38241;DHT22;24037;49.536;8.500;2022-12-15T02:38:08;-4.40;57.30
38241;DHT22;24037;49.536;8.500;2022-12-15T02:40:35;-4.40;56.90
38241;DHT22;24037;49.536;8.500;2022-12-15T02:43:03;-4.40;56.70
38241;DHT22;24037;49.536;8.500;2022-12-15T02:45:53;-4.40;56.10
38241;DHT22;24037;49.536;8.500;2022-12-15T02:51:19;-4.50;55.80
38241;DHT22;24037;49.536;8.500;2022-12-15T02:56:57;-4.40;57.00
38241;DHT22;24037;49.536;8.500;2022-12-15T02:59:46;-4.50;54.50
38241;DHT22;24037;49.536;8.500;2022-12-15T03:02:22;-4.60;53.60
38241;DHT22;24037;49.536;8.500;2022-12-15T03:04:50;-4.80;53.80
38241;DHT22;24037;49.536;8.500;2022-12-15T03:07:16;-4.70;55.20
38241;DHT22;24037;49.536;8.500;2022-12-15T03:09:43;-4.70;58.80
38241;DHT22;24037;49.536;8.500;2022-12-15T03:12:09;-4.80;59.60
38241;DHT22;24037;49.536;8.500;2022-12-15T03:14:35;-4.90;58.80
38241;DHT22;24037;49.536;8.500;2022-12-15T03:17:01;-4.90;59.20
38241;DHT22;24037;49.536;8.500;2022-12-15T03:19:29;-5.00;59.00
38241;DHT22;24037;49.536;8.500;2022-12-15T03:21:56;-5.00;58.90
38241;DHT22;24037;49.536;8.500;2022-12-15T03:24:22;-5.00;58.80
38241;DHT22;24037;49.536;8.500;2022-12-15T03:26:48;-5.10;58.50
38241;DHT22;24037;49.536;8.500;2022-12-15T03:29:18;-5.10;59.40
38241;DHT22;24037;49.536;8.500;2022-12-15T03:31:44;-5.20;59.00
38241;DHT22;24037;49.536;8.500;2022-12-15T03:34:11;-5.20;59.00
38241;DHT22;24037;49.536;8.500;2022-12-15T03:36:37;-5.30;60.20
38241;DHT22;24037;49.536;8.500;2022-12-15T03:39:03;-5.30;62.50
38241;DHT22;24037;49.536;8.500;2022-12-15T03:41:30;-5.30;64.10
38241;DHT22;24037;49.536;8.500;2022-12-15T03:43:56;-5.30;65.10
38241;DHT22;24037;49.536;8.500;2022-12-15T03:46:22;-5.40;64.70
38241;DHT22;24037;49.536;8.500;2022-12-15T03:48:48;-5.40;64.90
38241;DHT22;24037;49.536;8.500;2022-12-15T03:51:15;-5.50;63.80
38241;DHT22;24037;49.536;8.500;2022-12-15T03:53:42;-5.50;63.70
38241;DHT22;24037;49.536;8.500;2022-12-15T03:56:08;-5.60;61.60
38241;DHT22;24037;49.536;8.500;2022-12-15T03:58:34;-5.60;61.10
38241;DHT22;24037;49.536;8.500;2022-12-15T04:01:25;-5.60;61.10
38241;DHT22;24037;49.536;8.500;2022-12-15T04:03:52;-5.70;59.30
38241;DHT22;24037;49.536;8.500;2022-12-15T04:06:18;-5.80;60.30
38241;DHT22;24037;49.536;8.500;2022-12-15T04:08:44;-5.80;59.80
38241;DHT22;24037;49.536;8.500;2022-12-15T04:11:11;-5.90;58.80
38241;DHT22;24037;49.536;8.500;2022-12-15T04:13:37;-5.90;59.30
38241;DHT22;24037;49.536;8.500;2022-12-15T04:16:04;-6.00;59.20
38241;DHT22;24037;49.536;8.500;2022-12-15T04:18:30;-6.00;59.20
38241;DHT22;24037;49.536;8.500;2022-12-15T04:20:56;-6.00;59.50
38241;DHT22;24037;49.536;8.500;2022-12-15T04:23:23;-6.10;56.60
38241;DHT22;24037;49.536;8.500;2022-12-15T04:25:49;-6.20;56.00
38241;DHT22;24037;49.536;8.500;2022-12-15T04:28:34;-6.20;57.90
38241;DHT22;24037;49.536;8.500;2022-12-15T04:31:29;-6.00;62.20
38241;DHT22;24037;49.536;8.500;2022-12-15T04:34:18;-6.00;63.20
38241;DHT22;24037;49.536;8.500;2022-12-15T04:37:05;-6.00;59.40
38241;DHT22;24037;49.536;8.500;2022-12-15T04:39:52;-6.00;57.20
38241;DHT22;24037;49.536;8.500;2022-12-15T04:42:42;-6.00;53.70
38241;DHT22;24037;49.536;8.500;2022-12-15T04:45:28;-6.10;49.20
38241;DHT22;24037;49.536;8.500;2022-12-15T04:48:12;-6.10;46.30
38241;DHT22;24037;49.536;8.500;2022-12-15T04:50:57;-6.10;48.00
38241;DHT22;24037;49.536;8.500;2022-12-15T04:53:43;-6.00;50.60
38241;DHT22;24037;49.536;8.500;2022-12-15T04:56:28;-5.90;53.10
38241;DHT22;24037;49.536;8.500;2022-12-15T04:59:13;-5.80;53.50
38241;DHT22;24037;49.536;8.500;2022-12-15T05:01:58;-5.80;54.10
38241;DHT22;24037;49.536;8.500;2022-12-15T05:04:43;-5.80;54.80
38241;DHT22;24037;49.536;8.500;2022-12-15T05:07:28;-5.70;56.00
38241;DHT22;24037;49.536;8.500;2022-12-15T05:10:12;-5.60;55.20
38241;DHT22;24037;49.536;8.500;2022-12-15T05:13:07;-5.50;56.80
38241;DHT22;24037;49.536;8.500;2022-12-15T05:15:52;-5.50;54.10
38241;DHT22;24037;49.536;8.500;2022-12-15T05:18:36;-5.50;50.60
38241;DHT22;24037;49.536;8.500;2022-12-15T05:21:21;-5.50;48.30
38241;DHT22;24037;49.536;8.500;2022-12-15T05:24:06;-5.50;45.80
38241;DHT22;24037;49.536;8.500;2022-12-15T05:26:51;-5.50;44.10
38241;DHT22;24037;49.536;8.500;2022-12-15T05:29:36;-5.60;43.20
38241;DHT22;24037;49.536;8.500;2022-12-15T05:32:21;-5.50;44.90
38241;DHT22;24037;49.536;8.500;2022-12-15T05:34:48;-5.60;45.40
38241;DHT22;24037;49.536;8.500;2022-12-15T05:37:14;-5.60;44.50
38241;DHT22;24037;49.536;8.500;2022-12-15T05:39:41;-5.70;43.70
38241;DHT22;24037;49.536;8.500;2022-12-15T05:42:07;-5.70;44.10
38241;DHT22;24037;49.536;8.500;2022-12-15T05:44:33;-5.80;43.80
38241;DHT22;24037;49.536;8.500;2022-12-15T05:46:59;-5.80;44.00
38241;DHT22;24037;49.536;8.500;2022-12-15T05:49:25;-5.90;46.30
38241;DHT22;24037;49.536;8.500;2022-12-15T05:51:51;-6.00;46.60
38241;DHT22;24037;49.536;8.500;2022-12-15T05:54:21;-6.10;45.50
38241;DHT22;24037;49.536;8.500;2022-12-15T05:56:48;-6.10;45.60
38241;DHT22;24037;49.536;8.500;2022-12-15T05:59:14;-6.20;46.70
38241;DHT22;24037;49.536;8.500;2022-12-15T06:01:40;-6.30;48.30
38241;DHT22;24037;49.536;8.500;2022-12-15T06:04:09;-6.30;48.30
38241;DHT22;24037;49.536;8.500;2022-12-15T06:06:37;-6.40;48.00
38241;DHT22;24037;49.536;8.500;2022-12-15T06:09:04;-6.40;48.70
38241;DHT22;24037;49.536;8.500;2022-12-15T06:11:30;-6.50;48.40
38241;DHT22;24037;49.536;8.500;2022-12-15T06:13:56;-6.60;47.30
38241;DHT22;24037;49.536;8.500;2022-12-15T06:16:24;-6.70;46.30
38241;DHT22;24037;49.536;8.500;2022-12-15T06:18:56;-6.80;45.10
38241;DHT22;24037;49.536;8.500;2022-12-15T06:21:26;-6.80;45.70
38241;DHT22;24037;49.536;8.500;2022-12-15T06:23:53;-6.80;48.40
38241;DHT22;24037;49.536;8.500;2022-12-15T06:26:30;-6.80;49.00
38241;DHT22;24037;49.536;8.500;2022-12-15T06:28:58;-6.80;52.00
38241;DHT22;24037;49.536;8.500;2022-12-15T06:31:28;-6.80;52.80
38241;DHT22;24037;49.536;8.500;2022-12-15T06:33:55;-6.70;57.20
38241;DHT22;24037;49.536;8.500;2022-12-15T06:36:22;-6.80;57.70
38241;DHT22;24037;49.536;8.500;2022-12-15T06:38:51;-6.90;54.80
38241;DHT22;24037;49.536;8.500;2022-12-15T06:41:19;-7.00;52.10
38241;DHT22;24037;49.536;8.500;2022-12-15T06:43:50;-6.90;53.60
38241;DHT22;24037;49.536;8.500;2022-12-15T06:46:17;-6.90;53.10
38241;DHT22;24037;49.536;8.500;2022-12-15T06:48:44;-7.00;51.30
38241;DHT22;24037;49.536;8.500;2022-12-15T06:51:11;-7.10;49.60
38241;DHT22;24037;49.536;8.500;2022-12-15T06:53:39;-7.10;49.20
38241;DHT22;24037;49.536;8.500;2022-12-15T06:56:09;-7.10;50.90
38241;DHT22;24037;49.536;8.500;2022-12-15T06:58:38;-7.10;51.50
38241;DHT22;24037;49.536;8.500;2022-12-15T07:01:06;-7.10;51.80
38241;DHT22;24037;49.536;8.500;2022-12-15T07:03:33;-7.10;53.00
38241;DHT22;24037;49.536;8.500;2022-12-15T07:06:04;-7.10;52.70
38241;DHT22;24037;49.536;8.500;2022-12-15T07:08:31;-7.10;51.10
38241;DHT22;24037;49.536;8.500;2022-12-15T07:10:57;-7.20;51.10
38241;DHT22;24037;49.536;8.500;2022-12-15T07:13:24;-7.20;49.40
38241;DHT22;24037;49.536;8.500;2022-12-15T07:15:50;-7.30;47.40
38241;DHT22;24037;49.536;8.500;2022-12-15T07:18:17;-7.30;45.70
38241;DHT22;24037;49.536;8.500;2022-12-15T07:20:43;-7.40;42.90
38241;DHT22;24037;49.536;8.500;2022-12-15T07:23:10;-7.50;39.90
38241;DHT22;24037;49.536;8.500;2022-12-15T07:25:37;-7.60;37.50
38241;DHT22;24037;49.536;8.500;2022-12-15T07:28:03;-7.60;36.40
38241;DHT22;24037;49.536;8.500;2022-12-15T07:30:30;-7.50;37.10
38241;DHT22;24037;49.536;8.500;2022-12-15T07:32:57;-7.50;38.20
38241;DHT22;24037;49.536;8.500;2022-12-15T07:35:24;-7.50;37.80
38241;DHT22;24037;49.536;8.500;2022-12-15T07:37:50;-7.50;40.30
38241;DHT22;24037;49.536;8.500;2022-12-15T07:40:16;-7.50;42.10
38241;DHT22;24037;49.536;8.500;2022-12-15T07:42:42;-7.40;43.60
38241;DHT22;24037;49.536;8.500;2022-12-15T07:45:09;-7.30;45.70
38241;DHT22;24037;49.536;8.500;2022-12-15T07:47:36;-7.30;48.20
38241;DHT22;24037;49.536;8.500;2022-12-15T07:50:03;-7.20;51.60
38241;DHT22;24037;49.536;8.500;2022-12-15T07:52:29;-7.20;54.40
38241;DHT22;24037;49.536;8.500;2022-12-15T07:54:56;-7.10;56.80
38241;DHT22;24037;49.536;8.500;2022-12-15T07:57:22;-7.10;59.70
38241;DHT22;24037;49.536;8.500;2022-12-15T07:59:49;-7.10;62.90
38241;DHT22;24037;49.536;8.500;2022-12-15T08:02:16;-7.10;67.30
38241;DHT22;24037;49.536;8.500;2022-12-15T08:04:42;-7.00;71.60
38241;DHT22;24037;49.536;8.500;2022-12-15T08:07:09;-7.00;73.60
38241;DHT22;24037;49.536;8.500;2022-12-15T08:09:36;-6.90;74.70
38241;DHT22;24037;49.536;8.500;2022-12-15T08:12:02;-6.90;74.80
38241;DHT22;24037;49.536;8.500;2022-12-15T08:14:28;-6.80;73.40
38241;DHT22;24037;49.536;8.500;2022-12-15T08:16:55;-6.70;72.60
38241;DHT22;24037;49.536;8.500;2022-12-15T08:19:21;-6.70;68.10
38241;DHT22;24037;49.536;8.500;2022-12-15T08:21:47;-6.70;63.40
38241;DHT22;24037;49.536;8.500;2022-12-15T08:24:14;-6.70;59.50
38241;DHT22;24037;49.536;8.500;2022-12-15T08:26:41;-6.60;58.00
38241;DHT22;24037;49.536;8.500;2022-12-15T08:29:11;-6.40;56.90
38241;DHT22;24037;49.536;8.500;2022-12-15T08:31:38;-6.40;52.30
38241;DHT22;24037;49.536;8.500;2022-12-15T08:34:05;-6.50;45.40
38241;DHT22;24037;49.536;8.500;2022-12-15T08:36:31;-6.50;40.10
38241;DHT22;24037;49.536;8.500;2022-12-15T08:38:59;-6.50;35.90
38241;DHT22;24037;49.536;8.500;2022-12-15T08:41:30;-6.40;35.10
38241;DHT22;24037;49.536;8.500;2022-12-15T08:43:58;-6.20;35.20
38241;DHT22;24037;49.536;8.500;2022-12-15T08:46:30;-5.90;36.80
38241;DHT22;24037;49.536;8.500;2022-12-15T08:48:59;-5.80;37.60
38241;DHT22;24037;49.536;8.500;2022-12-15T08:51:27;-5.60;39.90
38241;DHT22;24037;49.536;8.500;2022-12-15T08:53:55;-5.60;41.80
38241;DHT22;24037;49.536;8.500;2022-12-15T08:56:23;-5.50;43.40
38241;DHT22;24037;49.536;8.500;2022-12-15T08:58:55;-5.40;43.70
38241;DHT22;24037;49.536;8.500;2022-12-15T09:01:22;-5.40;45.00
38241;DHT22;24037;49.536;8.500;2022-12-15T09:03:50;-5.40;45.60
38241;DHT22;24037;49.536;8.500;2022-12-15T09:06:22;-5.30;45.60
38241;DHT22;24037;49.536;8.500;2022-12-15T09:08:49;-5.30;45.20
38241;DHT22;24037;49.536;8.500;2022-12-15T09:11:15;-5.10;45.70
38241;DHT22;24037;49.536;8.500;2022-12-15T09:13:41;-4.90;45.00
38241;DHT22;24037;49.536;8.500;2022-12-15T09:16:12;-4.70;41.80
38241;DHT22;24037;49.536;8.500;2022-12-15T09:18:41;-4.40;38.30
38241;DHT22;24037;49.536;8.500;2022-12-15T09:21:08;-4.30;30.80
38241;DHT22;24037;49.536;8.500;2022-12-15T09:23:36;-4.20;23.10
38241;DHT22;24037;49.536;8.500;2022-12-15T09:26:11;-4.00;19.10
38241;DHT22;24037;49.536;8.500;2022-12-15T09:28:39;-3.90;13.50
38241;DHT22;24037;49.536;8.500;2022-12-15T09:31:26;-3.80;9.30
38241;DHT22;24037;49.536;8.500;2022-12-15T09:33:57;-3.70;2.80
38241;DHT22;24037;49.536;8.500;2022-12-15T09:36:23;-3.80;1.00
38241;DHT22;24037;49.536;8.500;2022-12-15T09:38:50;-3.70;1.10
38241;DHT22;24037;49.536;8.500;2022-12-15T09:41:21;-3.70;1.00
38241;DHT22;24037;49.536;8.500;2022-12-15T09:44:15;-3.70;1.00
38241;DHT22;24037;49.536;8.500;2022-12-15T09:46:54;-3.60;1.00
38241;DHT22;24037;49.536;8.500;2022-12-15T09:52:26;-3.50;1.00
38241;DHT22;24037;49.536;8.500;2022-12-15T09:54:55;-3.40;1.00
38241;DHT22;24037;49.536;8.500;2022-12-15T09:57:43;-3.30;1.00
38241;DHT22;24037;49.536;8.500;2022-12-15T10:00:17;-3.10;1.00
38241;DHT22;24037;49.536;8.500;2022-12-15T10:08:09;-3.20;1.00
38241;DHT22;24037;49.536;8.500;2022-12-15T10:10:45;-3.30;1.00
38241;DHT22;24037;49.536;8.500;2022-12-15T10:13:20;-3.20;1.00
38241;DHT22;24037;49.536;8.500;2022-12-15T10:15:57;-3.00;1.00
38241;DHT22;24037;49.536;8.500;2022-12-15T10:18:38;-3.00;1.00
38241;DHT22;24037;49.536;8.500;2022-12-15T10:21:10;-3.30;1.00
38241;DHT22;24037;49.536;8.500;2022-12-15T10:23:39;-3.40;1.00
38241;DHT22;24037;49.536;8.500;2022-12-15T10:26:24;-3.40;1.00
38241;DHT22;24037;49.536;8.500;2022-12-15T10:29:12;-3.30;1.00
38241;DHT22;24037;49.536;8.500;2022-12-15T10:31:53;-3.30;1.00
38241;DHT22;24037;49.536;8.500;2022-12-15T10:34:25;-3.30;1.00
38241;DHT22;24037;49.536;8.500;2022-12-15T10:36:52;-3.10;1.00
38241;DHT22;24037;49.536;8.500;2022-12-15T10:39:20;-3.00;1.00
38241;DHT22;24037;49.536;8.500;2022-12-15T10:42:20;-2.90;1.00
38241;DHT22;24037;49.536;8.500;2022-12-15T10:44:50;-2.90;1.00
38241;DHT22;24037;49.536;8.500;2022-12-15T10:49:45;-2.90;1.00
38241;DHT22;24037;49.536;8.500;2022-12-15T10:52:33;-2.90;1.00
38241;DHT22;24037;49.536;8.500;2022-12-15T10:55:00;-2.90;1.00
38241;DHT22;24037;49.536;8.500;2022-12-15T10:57:29;-2.90;1.00
38241;DHT22;24037;49.536;8.500;2022-12-15T11:02:47;-3.00;1.00
38241;DHT22;24037;49.536;8.500;2022-12-15T11:05:15;-3.00;1.00
38241;DHT22;24037;49.536;8.500;2022-12-15T11:07:47;-3.00;1.00
38241;DHT22;24037;49.536;8.500;2022-12-15T11:10:23;-3.00;1.00
38241;DHT22;24037;49.536;8.500;2022-12-15T11:15:33;-3.00;1.00
38241;DHT22;24037;49.536;8.500;2022-12-15T11:18:09;-3.10;1.00
38241;DHT22;24037;49.536;8.500;2022-12-15T11:20:46;-3.10;1.00
38241;DHT22;24037;49.536;8.500;2022-12-15T11:26:10;-2.90;1.00
38241;DHT22;24037;49.536;8.500;2022-12-15T11:31:41;-3.20;1.00
38241;DHT22;24037;49.536;8.500;2022-12-15T11:34:12;-3.20;1.00
38241;DHT22;24037;49.536;8.500;2022-12-15T11:37:06;-3.10;1.00
38241;DHT22;24037;49.536;8.500;2022-12-15T11:48:11;-3.20;1.00
38241;DHT22;24037;49.536;8.500;2022-12-15T11:53:38;-3.10;1.00
38241;DHT22;24037;49.536;8.500;2022-12-15T12:01:54;-3.30;6.00
38241;DHT22;24037;49.536;8.500;2022-12-15T12:04:36;-3.30;6.60
38241;DHT22;24037;49.536;8.500;2022-12-15T12:10:30;-3.40;10.30
38241;DHT22;24037;49.536;8.500;2022-12-15T12:13:19;-3.50;12.10
38241;DHT22;24037;49.536;8.500;2022-12-15T12:15:56;-3.40;13.90
38241;DHT22;24037;49.536;8.500;2022-12-15T12:18:54;-3.30;14.00
38241;DHT22;24037;49.536;8.500;2022-12-15T12:21:25;-3.30;10.60
38241;DHT22;24037;49.536;8.500;2022-12-15T12:24:00;-3.30;9.60
38241;DHT22;24037;49.536;8.500;2022-12-15T12:26:37;-3.40;9.40
38241;DHT22;24037;49.536;8.500;2022-12-15T12:29:22;-3.40;12.40
38241;DHT22;24037;49.536;8.500;2022-12-15T12:34:31;-3.50;14.00
38241;DHT22;24037;49.536;8.500;2022-12-15T12:37:26;-3.40;14.40
38241;DHT22;24037;49.536;8.500;2022-12-15T12:40:00;-3.30;14.70
38241;DHT22;24037;49.536;8.500;2022-12-15T12:42:36;-3.30;12.00
38241;DHT22;24037;49.536;8.500;2022-12-15T12:45:03;-3.20;11.00
38241;DHT22;24037;49.536;8.500;2022-12-15T12:47:33;-3.30;10.10
38241;DHT22;24037;49.536;8.500;2022-12-15T12:50:05;-3.20;10.30
38241;DHT22;24037;49.536;8.500;2022-12-15T12:52:33;-3.20;8.80
38241;DHT22;24037;49.536;8.500;2022-12-15T12:55:44;-3.10;8.20
38241;DHT22;24037;49.536;8.500;2022-12-15T12:57:52;-3.20;7.90
38241;DHT22;24037;49.536;8.500;2022-12-15T13:00:23;-3.30;9.50
38241;DHT22;24037;49.536;8.500;2022-12-15T13:05:39;-3.30;10.60
38241;DHT22;24037;49.536;8.500;2022-12-15T13:10:36;-3.30;13.80
38241;DHT22;24037;49.536;8.500;2022-12-15T13:15:47;-3.30;12.90
38241;DHT22;24037;49.536;8.500;2022-12-15T13:18:25;-3.20;12.20
38241;DHT22;24037;49.536;8.500;2022-12-15T13:20:56;-3.20;11.90
38241;DHT22;24037;49.536;8.500;2022-12-15T13:28:29;-2.90;7.40
38241;DHT22;24037;49.536;8.500;2022-12-15T13:36:11;-2.80;1.00
38241;DHT22;24037;49.536;8.500;2022-12-15T13:38:57;-2.80;1.00
38241;DHT22;24037;49.536;8.500;2022-12-15T13:41:23;-2.80;1.00
38241;DHT22;24037;49.536;8.500;2022-12-15T13:43:52;-2.70;1.00
38241;DHT22;24037;49.536;8.500;2022-12-15T13:46:25;-2.70;1.00
38241;DHT22;24037;49.536;8.500;2022-12-15T13:49:27;-2.70;1.00
38241;DHT22;24037;49.536;8.500;2022-12-15T13:52:12;-2.70;1.00
38241;DHT22;24037;49.536;8.500;2022-12-15T13:54:44;-2.70;1.00
38241;DHT22;24037;49.536;8.500;2022-12-15T13:57:15;-2.60;1.00
38241;DHT22;24037;49.536;8.500;2022-12-15T13:59:45;-2.60;1.00
38241;DHT22;24037;49.536;8.500;2022-12-15T14:02:29;-2.50;1.00
38241;DHT22;24037;49.536;8.500;2022-12-15T14:05:18;-2.40;1.00
38241;DHT22;24037;49.536;8.500;2022-12-15T14:13:06;-2.50;1.00
38241;DHT22;24037;49.536;8.500;2022-12-15T14:15:34;-2.60;1.00
38241;DHT22;24037;49.536;8.500;2022-12-15T14:18:01;-2.50;1.00
38241;DHT22;24037;49.536;8.500;2022-12-15T14:20:38;-2.50;1.00
38241;DHT22;24037;49.536;8.500;2022-12-15T14:23:39;-2.60;1.00
38241;DHT22;24037;49.536;8.500;2022-12-15T14:26:07;-2.60;1.00
38241;DHT22;24037;49.536;8.500;2022-12-15T14:28:37;-2.60;1.00
38241;DHT22;24037;49.536;8.500;2022-12-15T14:31:10;-2.60;1.00
38241;DHT22;24037;49.536;8.500;2022-12-15T14:33:41;-2.70;1.00
38241;DHT22;24037;49.536;8.500;2022-12-15T14:36:10;-2.70;1.00
38241;DHT22;24037;49.536;8.500;2022-12-15T14:38:59;-2.70;1.00
38241;DHT22;24037;49.536;8.500;2022-12-15T14:41:36;-2.70;1.00
38241;DHT22;24037;49.536;8.500;2022-12-15T14:44:16;-2.80;1.00
38241;DHT22;24037;49.536;8.500;2022-12-15T14:46:45;-2.80;1.00
38241;DHT22;24037;49.536;8.500;2022-12-15T14:49:18;-2.80;1.00
38241;DHT22;24037;49.536;8.500;2022-12-15T14:51:50;-2.90;1.00
38241;DHT22;24037;49.536;8.500;2022-12-15T14:54:34;-2.90;1.00
38241;DHT22;24037;49.536;8.500;2022-12-15T14:57:22;-2.90;1.00
38241;DHT22;24037;49.536;8.500;2022-12-15T14:59:49;-2.90;1.00
38241;DHT22;24037;49.536;8.500;2022-12-15T15:02:24;-3.00;1.00
38241;DHT22;24037;49.536;8.500;2022-12-15T15:04:56;-3.00;1.00
38241;DHT22;24037;49.536;8.500;2022-12-15T15:07:25;-3.00;1.00
38241;DHT22;24037;49.536;8.500;2022-12-15T15:09:53;-3.10;1.00
38241;DHT22;24037;49.536;8.500;2022-12-15T15:12:22;-3.10;1.00
38241;DHT22;24037;49.536;8.500;2022-12-15T15:15:00;-3.10;1.00
38241;DHT22;24037;49.536;8.500;2022-12-15T15:17:41;-3.10;1.00
38241;DHT22;24037;49.536;8.500;2022-12-15T15:20:27;-3.20;1.00
38241;DHT22;24037;49.536;8.500;2022-12-15T15:30:46;-3.40;4.80
38241;DHT22;24037;49.536;8.500;2022-12-15T15:33:13;-3.40;5.20
38241;DHT22;24037;49.536;8.500;2022-12-15T15:35:40;-3.50;5.90
38241;DHT22;24037;49.536;8.500;2022-12-15T15:38:17;-3.50;6.70
38241;DHT22;24037;49.536;8.500;2022-12-15T15:40:55;-3.50;7.60
38241;DHT22;24037;49.536;8.500;2022-12-15T15:43:22;-3.50;8.00
38241;DHT22;24037;49.536;8.500;2022-12-15T15:45:59;-3.60;8.60
38241;DHT22;24037;49.536;8.500;2022-12-15T15:51:24;-3.70;9.90
38241;DHT22;24037;49.536;8.500;2022-12-15T15:53:51;-3.80;11.50
38241;DHT22;24037;49.536;8.500;2022-12-15T15:56:18;-3.70;12.40
38241;DHT22;24037;49.536;8.500;2022-12-15T15:58:45;-3.80;12.90
38241;DHT22;24037;49.536;8.500;2022-12-15T16:01:11;-3.80;13.10
38241;DHT22;24037;49.536;8.500;2022-12-15T16:03:38;-3.80;13.80
38241;DHT22;24037;49.536;8.500;2022-12-15T16:06:05;-3.80;13.50
38241;DHT22;24037;49.536;8.500;2022-12-15T16:08:34;-3.90;13.50
38241;DHT22;24037;49.536;8.500;2022-12-15T16:11:01;-3.80;13.50
38241;DHT22;24037;49.536;8.500;2022-12-15T16:13:27;-3.90;13.30
38241;DHT22;24037;49.536;8.500;2022-12-15T16:15:54;-3.90;13.70
38241;DHT22;24037;49.536;8.500;2022-12-15T16:18:20;-4.00;14.60
38241;DHT22;24037;49.536;8.500;2022-12-15T16:20:49;-4.00;15.30
38241;DHT22;24037;49.536;8.500;2022-12-15T16:23:26;-4.00;15.90
38241;DHT22;24037;49.536;8.500;2022-12-15T16:25:58;-4.00;16.80
38241;DHT22;24037;49.536;8.500;2022-12-15T16:28:27;-4.00;17.50
38241;DHT22;24037;49.536;8.500;2022-12-15T16:30:55;-4.00;18.00
38241;DHT22;24037;49.536;8.500;2022-12-15T16:33:24;-4.10;18.80
38241;DHT22;24037;49.536;8.500;2022-12-15T16:35:50;-4.10;19.40
38241;DHT22;24037;49.536;8.500;2022-12-15T16:38:23;-4.10;20.40
38241;DHT22;24037;49.536;8.500;2022-12-15T16:40:51;-4.10;20.60
38241;DHT22;24037;49.536;8.500;2022-12-15T16:43:22;-4.10;20.80
38241;DHT22;24037;49.536;8.500;2022-12-15T16:45:50;-4.10;21.70
38241;DHT22;24037;49.536;8.500;2022-12-15T16:48:17;-4.10;22.40
38241;DHT22;24037;49.536;8.500;2022-12-15T16:50:48;-4.10;22.90
38241;DHT22;24037;49.536;8.500;2022-12-15T16:53:16;-4.10;23.10
38241;DHT22;24037;49.536;8.500;2022-12-15T16:55:43;-4.10;23.30
38241;DHT22;24037;49.536;8.500;2022-12-15T16:58:13;-4.10;23.70
38241;DHT22;24037;49.536;8.500;2022-12-15T17:00:40;-4.10;24.00
38241;DHT22;24037;49.536;8.500;2022-12-15T17:03:11;-4.10;24.10
38241;DHT22;24037;49.536;8.500;2022-12-15T17:05:38;-4.10;24.80
38241;DHT22;24037;49.536;8.500;2022-12-15T17:08:05;-4.10;25.50
38241;DHT22;24037;49.536;8.500;2022-12-15T17:10:32;-4.10;26.00
38241;DHT22;24037;49.536;8.500;2022-12-15T17:15:47;-4.10;27.00
38241;DHT22;24037;49.536;8.500;2022-12-15T17:18:13;-4.00;27.70
38241;DHT22;24037;49.536;8.500;2022-12-15T17:20:40;-4.00;28.10
38241;DHT22;24037;49.536;8.500;2022-12-15T17:23:20;-4.00;28.20
38241;DHT22;24037;49.536;8.500;2022-12-15T17:25:48;-3.90;28.50
38241;DHT22;24037;49.536;8.500;2022-12-15T17:28:19;-3.90;27.80
38241;DHT22;24037;49.536;8.500;2022-12-15T17:30:46;-3.90;27.50
38241;DHT22;24037;49.536;8.500;2022-12-15T17:33:23;-3.90;27.50
38241;DHT22;24037;49.536;8.500;2022-12-15T17:35:54;-3.90;27.30
38241;DHT22;24037;49.536;8.500;2022-12-15T17:38:21;-3.90;27.20
38241;DHT22;24037;49.536;8.500;2022-12-15T17:40:48;-3.90;27.00
38241;DHT22;24037;49.536;8.500;2022-12-15T17:43:20;-3.80;26.70
38241;DHT22;24037;49.536;8.500;2022-12-15T17:45:47;-3.90;26.50
38241;DHT22;24037;49.536;8.500;2022-12-15T17:48:23;-3.90;26.80
38241;DHT22;24037;49.536;8.500;2022-12-15T17:50:52;-3.90;27.40
38241;DHT22;24037;49.536;8.500;2022-12-15T17:53:21;-3.90;28.00